Terminal Aerodrome Forecast
Issued by NWS Milwaukee/Sullivan, WI

Home | Current Version | Previous Version | Text Only | Print | Product List | Glossary On
Versions: 1 2 3 4 5 6 7 8 9 10 11 12 13 14 15 16 17 18 19 20 21 22 23 24 25 26 27 28 29 30 31 32 33 34 35 36 37 38 39 40 41 42 43
000
FTUS43 KMKX 030520
TAFMSN
TAF
KMSN 030520Z 0306/0406 18003KT P6SM VCSH SCT050 BKN080
     FM030900 19004KT 6SM BR VCSH BKN040 BKN080
     FM031200 20005KT P6SM BKN035 BKN150
     FM031600 22005KT P6SM SCT040 BKN200
     FM032200 VRB05KT P6SM VCTS BKN040CB
     FM040400 08005KT 5SM BR BKN035=

USA.gov is the U.S. government's official web portal to all federal, state and local government web resources and services.